createdAt,value
2022-09-11T00:00:53.213Z,0.00
2022-09-11T00:01:53.272Z,0.00
2022-09-11T00:02:53.305Z,0.00
2022-09-11T00:03:53.279Z,0.00
2022-09-11T00:04:53.287Z,0.00
2022-09-11T00:05:53.303Z,0.00
2022-09-11T00:06:53.323Z,0.00
2022-09-11T00:07:53.342Z,0.00
2022-09-11T00:08:53.357Z,0.00
2022-09-11T00:09:53.378Z,0.00
2022-09-11T00:10:53.394Z,0.00
2022-09-11T00:11:53.411Z,0.00
2022-09-11T00:12:53.457Z,0.00
2022-09-11T00:13:53.447Z,0.00
2022-09-11T00:14:53.467Z,0.00
2022-09-11T00:15:53.519Z,0.00
2022-09-11T00:16:53.504Z,0.00
2022-09-11T00:17:53.517Z,0.00
2022-09-11T00:18:53.536Z,0.00
2022-09-11T00:19:53.554Z,0.00
2022-09-11T00:20:53.572Z,0.00
2022-09-11T00:21:53.591Z,0.00
2022-09-11T00:22:53.610Z,0.00
2022-09-11T00:23:53.625Z,0.00
2022-09-11T00:24:53.647Z,0.00
2022-09-11T00:25:53.667Z,0.00
2022-09-11T00:26:53.681Z,0.00
2022-09-11T00:27:53.697Z,0.00
2022-09-11T00:28:53.720Z,0.00
2022-09-11T00:29:53.735Z,0.00
2022-09-11T00:30:53.754Z,0.00
2022-09-11T00:31:53.768Z,0.00
2022-09-11T00:32:53.789Z,0.00
2022-09-11T00:33:53.804Z,0.00
2022-09-11T00:34:53.825Z,0.00
2022-09-11T00:35:53.840Z,0.00
2022-09-11T00:36:53.859Z,0.00
2022-09-11T00:37:53.877Z,0.00
2022-09-11T00:38:53.898Z,0.00
2022-09-11T00:39:54.009Z,0.00
2022-09-11T00:40:53.929Z,0.00
2022-09-11T00:41:53.948Z,0.00
2022-09-11T00:42:53.967Z,0.00
2022-09-11T00:43:53.987Z,0.00
2022-09-11T00:44:54.006Z,0.00
2022-09-11T00:45:54.028Z,0.00
2022-09-11T00:46:54.039Z,0.00
2022-09-11T00:47:54.054Z,0.00
2022-09-11T00:48:54.072Z,0.00
2022-09-11T00:49:54.090Z,0.00
2022-09-11T00:50:54.108Z,0.00
2022-09-11T00:51:54.123Z,0.00
2022-09-11T00:52:54.144Z,0.00
2022-09-11T00:53:54.161Z,0.00
2022-09-11T00:54:54.181Z,0.00
2022-09-11T00:55:54.196Z,0.00
2022-09-11T00:56:54.229Z,0.00
2022-09-11T00:57:54.242Z,0.00
2022-09-11T00:58:54.254Z,0.00
2022-09-11T00:59:54.269Z,0.00
2022-09-11T01:00:54.371Z,0.00
2022-09-11T01:01:54.394Z,0.00
2022-09-11T01:02:54.324Z,0.00
2022-09-11T01:03:54.339Z,0.00
2022-09-11T01:04:54.357Z,0.00
2022-09-11T01:05:54.374Z,0.00
2022-09-11T01:06:54.393Z,0.00
2022-09-11T01:07:54.441Z,0.00
2022-09-11T01:08:54.428Z,0.00
2022-09-11T01:09:54.448Z,0.00
2022-09-11T01:10:54.464Z,0.00
2022-09-11T01:11:54.480Z,0.00
2022-09-11T01:12:54.501Z,0.00
2022-09-11T01:13:54.517Z,0.00
2022-09-11T01:14:54.537Z,0.00
2022-09-11T01:15:54.598Z,0.00
2022-09-11T01:16:54.568Z,0.00
2022-09-11T01:17:54.591Z,0.00
2022-09-11T01:18:54.609Z,0.00
2022-09-11T01:19:54.627Z,0.00
2022-09-11T01:20:54.643Z,0.00
2022-09-11T01:21:54.658Z,0.00
2022-09-11T01:22:54.677Z,0.00
2022-09-11T01:23:54.693Z,0.00
2022-09-11T01:24:54.712Z,0.00
2022-09-11T01:25:54.729Z,0.00
2022-09-11T01:26:54.748Z,0.00
2022-09-11T01:27:54.765Z,0.00
2022-09-11T01:28:54.785Z,0.00
2022-09-11T01:29:54.803Z,0.00
2022-09-11T01:30:54.817Z,0.00
2022-09-11T01:31:54.834Z,0.00
2022-09-11T01:32:54.852Z,0.00
2022-09-11T01:33:54.873Z,0.00
2022-09-11T01:34:54.888Z,0.00
2022-09-11T01:35:54.907Z,0.00
2022-09-11T01:36:54.922Z,0.00
2022-09-11T01:37:54.942Z,0.00
2022-09-11T01:38:54.958Z,0.00
2022-09-11T01:39:55.040Z,0.00
2022-09-11T01:40:54.992Z,0.00
2022-09-11T01:41:55.012Z,0.00
2022-09-11T01:42:55.032Z,0.00
2022-09-11T01:43:55.045Z,0.00
2022-09-11T01:44:55.064Z,0.00
2022-09-11T01:45:55.137Z,0.00
2022-09-11T01:46:55.099Z,0.00
2022-09-11T01:47:55.123Z,0.00
2022-09-11T01:48:55.139Z,0.00
2022-09-11T01:49:55.151Z,0.00
2022-09-11T01:50:55.172Z,0.00
2022-09-11T01:51:55.197Z,0.00
2022-09-11T01:52:55.224Z,0.00
2022-09-11T01:53:55.222Z,0.00
2022-09-11T01:54:55.242Z,0.00
2022-09-11T01:55:55.256Z,0.00
2022-09-11T01:56:55.273Z,0.00
2022-09-11T01:57:55.291Z,0.00
2022-09-11T01:58:55.310Z,0.00
2022-09-11T01:59:55.330Z,0.00
2022-09-11T02:00:55.374Z,0.00
2022-09-11T02:01:55.399Z,0.00
2022-09-11T02:02:55.386Z,0.00
2022-09-11T02:03:55.399Z,0.00
2022-09-11T02:04:55.416Z,0.00
2022-09-11T02:05:55.433Z,0.00
2022-09-11T02:06:55.451Z,0.00
2022-09-11T02:07:55.469Z,0.00
2022-09-11T02:08:55.487Z,0.00
2022-09-11T02:09:55.503Z,0.00
2022-09-11T02:10:55.522Z,0.00
2022-09-11T02:11:55.542Z,0.00
2022-09-11T02:12:55.557Z,0.00
2022-09-11T02:13:55.577Z,0.00
2022-09-11T02:14:55.593Z,0.00
2022-09-11T02:15:55.639Z,0.00
2022-09-11T02:16:55.624Z,0.00
2022-09-11T02:17:55.644Z,0.00
2022-09-11T02:18:55.661Z,0.00
2022-09-11T02:19:55.677Z,0.00
2022-09-11T02:20:55.698Z,0.00
2022-09-11T02:21:55.712Z,0.00
2022-09-11T02:22:55.731Z,0.00
2022-09-11T02:23:55.748Z,0.00
2022-09-11T02:24:55.765Z,0.00
2022-09-11T02:25:55.783Z,0.00
2022-09-11T02:26:55.809Z,0.00
2022-09-11T02:27:55.819Z,0.00
2022-09-11T02:28:55.837Z,0.00
2022-09-11T02:29:55.854Z,0.00
2022-09-11T02:30:55.875Z,0.00
2022-09-11T02:31:55.889Z,0.00
2022-09-11T02:32:55.905Z,0.00
2022-09-11T02:33:55.925Z,0.00
2022-09-11T02:34:55.941Z,0.00
2022-09-11T02:35:55.960Z,0.00
2022-09-11T02:36:55.976Z,0.00
2022-09-11T02:37:55.994Z,0.00
2022-09-11T02:38:56.013Z,0.00
2022-09-11T02:39:56.086Z,0.00
2022-09-11T02:40:56.047Z,0.00
2022-09-11T02:41:56.065Z,0.00
2022-09-11T02:42:56.081Z,0.00
2022-09-11T02:43:56.097Z,0.00
2022-09-11T02:44:56.210Z,0.00
2022-09-11T02:45:56.187Z,0.00
2022-09-11T02:46:56.152Z,0.00
2022-09-11T02:47:56.167Z,0.00
2022-09-11T02:48:56.184Z,0.00
2022-09-11T02:49:56.202Z,0.00
2022-09-11T02:50:56.219Z,0.00
2022-09-11T02:51:56.239Z,0.00
2022-09-11T02:52:56.253Z,0.00
2022-09-11T02:53:56.273Z,0.00
2022-09-11T02:54:56.289Z,0.00
2022-09-11T02:55:56.307Z,0.00
2022-09-11T02:56:56.336Z,0.00
2022-09-11T02:57:56.347Z,0.00
2022-09-11T02:58:56.360Z,0.00
2022-09-11T02:59:56.377Z,0.00
2022-09-11T03:00:56.437Z,0.00
2022-09-11T03:01:56.463Z,0.00
2022-09-11T03:02:56.430Z,0.00
2022-09-11T03:03:56.443Z,0.00
2022-09-11T03:04:56.460Z,0.00
2022-09-11T03:05:56.480Z,0.00
2022-09-11T03:06:56.497Z,0.00
2022-09-11T03:07:56.513Z,0.00
2022-09-11T03:08:56.538Z,0.00
2022-09-11T03:09:56.550Z,0.00
2022-09-11T03:10:56.568Z,0.00
2022-09-11T03:11:56.583Z,0.00
2022-09-11T03:12:56.598Z,0.00
2022-09-11T03:13:56.617Z,0.00
2022-09-11T03:14:56.634Z,0.00
2022-09-11T03:15:56.744Z,0.00
2022-09-11T03:16:56.667Z,0.00
2022-09-11T03:17:56.686Z,0.00
2022-09-11T03:18:56.704Z,0.00
2022-09-11T03:19:56.720Z,0.00
2022-09-11T03:20:56.739Z,0.00
2022-09-11T03:21:56.755Z,0.00
2022-09-11T03:22:56.778Z,0.00
2022-09-11T03:23:56.789Z,0.00
2022-09-11T03:24:56.805Z,0.00
2022-09-11T03:25:56.826Z,0.00
2022-09-11T03:26:56.842Z,0.00
2022-09-11T03:27:56.857Z,0.00
2022-09-11T03:28:56.873Z,0.00
2022-09-11T03:29:56.894Z,0.00
2022-09-11T03:30:56.910Z,0.00
2022-09-11T03:31:56.949Z,0.00
2022-09-11T03:32:56.943Z,0.00
2022-09-11T03:33:56.967Z,0.00
2022-09-11T03:34:56.980Z,0.00
2022-09-11T03:35:56.998Z,0.00
2022-09-11T03:36:57.013Z,0.00
2022-09-11T03:37:57.033Z,0.00
2022-09-11T03:38:57.055Z,0.00
2022-09-11T03:39:57.098Z,0.00
2022-09-11T03:40:57.083Z,0.00
2022-09-11T03:41:57.107Z,0.00
2022-09-11T03:42:57.133Z,0.00
2022-09-11T03:43:57.134Z,0.00
2022-09-11T03:44:57.152Z,0.00
2022-09-11T03:45:57.208Z,0.00
2022-09-11T03:46:57.186Z,0.00
2022-09-11T03:47:57.202Z,0.00
2022-09-11T03:48:57.224Z,0.00
2022-09-11T03:49:57.238Z,0.00
2022-09-11T03:50:57.257Z,0.00
2022-09-11T03:51:57.274Z,0.00
2022-09-11T03:52:57.293Z,0.00
2022-09-11T03:53:57.307Z,0.00
2022-09-11T03:54:57.323Z,0.00
2022-09-11T03:55:57.343Z,0.00
2022-09-11T03:56:57.360Z,0.00
2022-09-11T03:57:57.386Z,0.00
2022-09-11T03:58:57.396Z,0.00
2022-09-11T03:59:57.410Z,0.00
2022-09-11T04:00:57.479Z,0.00
2022-09-11T04:01:57.525Z,0.00
2022-09-11T04:02:57.464Z,0.00
2022-09-11T04:03:57.480Z,0.00
2022-09-11T04:04:57.497Z,0.00
2022-09-11T04:05:57.514Z,0.00
2022-09-11T04:06:57.531Z,0.00
2022-09-11T04:07:57.550Z,0.00
2022-09-11T04:08:57.569Z,0.00
2022-09-11T04:09:57.583Z,0.00
2022-09-11T04:10:57.630Z,0.00
2022-09-11T04:11:57.619Z,0.00
2022-09-11T04:12:57.635Z,0.00
2022-09-11T04:13:57.657Z,0.00
2022-09-11T04:14:57.676Z,0.00
2022-09-11T04:15:57.687Z,0.00
2022-09-11T04:16:57.704Z,0.00
2022-09-11T04:18:00.038Z,0.00
2022-09-11T04:18:57.740Z,0.00
2022-09-11T04:19:57.766Z,0.00
2022-09-11T04:20:57.773Z,0.00
2022-09-11T04:21:57.795Z,0.00
2022-09-11T04:22:57.807Z,0.00
2022-09-11T04:23:57.824Z,0.00
2022-09-11T04:24:57.843Z,0.00
2022-09-11T04:25:57.861Z,0.00
2022-09-11T04:27:00.757Z,0.00
2022-09-11T04:27:57.901Z,0.00
2022-09-11T04:28:57.911Z,0.00
2022-09-11T04:29:57.931Z,0.00
2022-09-11T04:30:57.947Z,0.00
2022-09-11T04:31:58.057Z,0.00
2022-09-11T04:32:57.979Z,0.00
2022-09-11T04:33:58.240Z,0.00
2022-09-11T04:34:58.021Z,0.00
2022-09-11T04:35:58.031Z,0.00
2022-09-11T04:36:58.049Z,0.00
2022-09-11T04:37:58.082Z,0.00
2022-09-11T04:38:58.085Z,0.00
2022-09-11T04:39:58.135Z,5.63
2022-09-11T04:40:58.119Z,5.63
2022-09-11T04:41:58.138Z,5.63
2022-09-11T04:42:58.155Z,5.63
2022-09-11T04:44:02.416Z,5.63
2022-09-11T04:44:58.186Z,5.63
2022-09-11T04:45:58.216Z,5.63
2022-09-11T04:46:58.224Z,5.63
2022-09-11T04:47:58.239Z,5.63
2022-09-11T04:48:58.255Z,5.63
2022-09-11T04:49:58.274Z,11.25
2022-09-11T04:50:58.290Z,11.25
2022-09-11T04:51:58.307Z,11.25
2022-09-11T04:52:58.327Z,11.25
2022-09-11T04:53:58.344Z,11.25
2022-09-11T04:54:58.363Z,11.25
2022-09-11T04:55:58.378Z,11.25
2022-09-11T04:56:58.397Z,11.25
2022-09-11T04:57:58.413Z,11.25
2022-09-11T04:58:58.432Z,16.88
2022-09-11T04:59:58.448Z,22.50
2022-09-11T05:00:58.519Z,22.50
2022-09-11T05:01:58.539Z,22.50
2022-09-11T05:02:58.499Z,28.13
2022-09-11T05:03:58.517Z,28.13
2022-09-11T05:04:58.537Z,33.75
2022-09-11T05:05:58.553Z,39.38
2022-09-11T05:06:58.571Z,39.38
2022-09-11T05:07:58.588Z,45.00
2022-09-11T05:08:58.615Z,56.25
2022-09-11T05:09:58.631Z,56.25
2022-09-11T05:10:58.654Z,56.25
2022-09-11T05:11:58.657Z,56.25
2022-09-11T05:12:58.678Z,56.25
2022-09-11T05:13:58.696Z,56.25
2022-09-11T05:14:58.714Z,61.88
2022-09-11T05:15:58.729Z,67.50
2022-09-11T05:16:58.745Z,73.13
2022-09-11T05:17:58.770Z,67.50
2022-09-11T05:18:58.792Z,67.50
2022-09-11T05:19:58.800Z,73.13
2022-09-11T05:20:58.817Z,84.38
2022-09-11T05:21:58.844Z,73.13
2022-09-11T05:22:58.857Z,67.50
2022-09-11T05:23:58.872Z,61.88
2022-09-11T05:24:58.890Z,67.50
2022-09-11T05:25:58.908Z,61.88
2022-09-11T05:26:58.943Z,61.88
2022-09-11T05:27:58.949Z,67.50
2022-09-11T05:28:58.959Z,67.50
2022-09-11T05:29:58.993Z,56.25
2022-09-11T05:30:58.997Z,50.63
2022-09-11T05:31:59.071Z,50.63
2022-09-11T05:32:59.036Z,45.00
2022-09-11T05:33:59.063Z,50.63
2022-09-11T05:34:59.070Z,56.25
2022-09-11T05:35:59.086Z,61.88
2022-09-11T05:36:59.105Z,61.88
2022-09-11T05:37:59.123Z,61.88
2022-09-11T05:38:59.142Z,61.88
2022-09-11T05:39:59.240Z,73.13
2022-09-11T05:40:59.178Z,67.50
2022-09-11T05:41:59.199Z,78.75
2022-09-11T05:42:59.215Z,84.38
2022-09-11T05:43:59.238Z,95.63
2022-09-11T05:44:59.253Z,95.63
2022-09-11T05:45:59.295Z,95.63
2022-09-11T05:46:59.289Z,101.25
2022-09-11T05:47:59.308Z,106.88
2022-09-11T05:48:59.324Z,106.88
2022-09-11T05:49:59.348Z,101.25
2022-09-11T05:50:59.364Z,95.63
2022-09-11T05:51:59.381Z,95.63
2022-09-11T05:52:59.397Z,95.63
2022-09-11T05:53:59.417Z,90.00
2022-09-11T05:54:59.437Z,106.88
2022-09-11T05:55:59.453Z,123.75
2022-09-11T05:56:59.471Z,129.38
2022-09-11T05:57:59.490Z,123.75
2022-09-11T05:58:59.509Z,106.88
2022-09-11T05:59:59.526Z,118.13
2022-09-11T06:00:59.557Z,112.50
2022-09-11T06:01:59.588Z,106.88
2022-09-11T06:02:59.585Z,106.88
2022-09-11T06:03:59.601Z,112.50
2022-09-11T06:04:59.619Z,118.13
2022-09-11T06:05:59.638Z,135.00
2022-09-11T06:06:59.659Z,123.75
2022-09-11T06:07:59.679Z,101.25
2022-09-11T06:08:59.692Z,106.88
2022-09-11T06:10:02.937Z,101.25
2022-09-11T06:10:59.730Z,106.88
2022-09-11T06:11:59.750Z,112.50
2022-09-11T06:12:59.766Z,146.25
2022-09-11T06:13:59.784Z,163.13
2022-09-11T06:14:59.807Z,129.38
2022-09-11T06:15:59.823Z,129.38
2022-09-11T06:16:59.860Z,146.25
2022-09-11T06:17:59.858Z,129.38
2022-09-11T06:19:00.351Z,118.13
2022-09-11T06:19:59.898Z,118.13
2022-09-11T06:20:59.918Z,118.13
2022-09-11T06:21:59.941Z,129.38
2022-09-11T06:22:59.952Z,123.75
2022-09-11T06:23:59.971Z,146.25
2022-09-11T06:24:59.992Z,123.75
2022-09-11T06:26:00.009Z,123.75
2022-09-11T06:27:00.028Z,135.00
2022-09-11T06:28:00.048Z,135.00
2022-09-11T06:29:00.067Z,168.75
2022-09-11T06:30:00.091Z,196.88
2022-09-11T06:31:00.154Z,191.25
2022-09-11T06:32:00.121Z,208.13
2022-09-11T06:33:00.139Z,225.00
2022-09-11T06:34:00.160Z,247.50
2022-09-11T06:35:00.176Z,270.00
2022-09-11T06:36:00.199Z,281.25
2022-09-11T06:37:00.214Z,264.38
2022-09-11T06:38:00.234Z,292.50
2022-09-11T06:39:00.253Z,315.00
2022-09-11T06:40:00.377Z,360.00
2022-09-11T06:41:00.290Z,343.13
2022-09-11T06:42:00.323Z,337.50
2022-09-11T06:43:00.328Z,365.63
2022-09-11T06:44:00.346Z,337.50
2022-09-11T06:45:00.369Z,376.88
2022-09-11T06:46:00.476Z,309.38
2022-09-11T06:47:00.405Z,309.38
2022-09-11T06:48:00.423Z,270.00
2022-09-11T06:49:00.444Z,253.13
2022-09-11T06:50:00.460Z,309.38
2022-09-11T06:51:00.483Z,219.38
2022-09-11T06:52:00.500Z,196.88
2022-09-11T06:53:00.521Z,174.38
2022-09-11T06:54:00.539Z,191.25
2022-09-11T06:55:00.562Z,191.25
2022-09-11T06:56:00.578Z,191.25
2022-09-11T06:57:00.598Z,163.13
2022-09-11T06:58:00.618Z,140.63
2022-09-11T06:59:00.638Z,135.00
2022-09-11T07:00:00.658Z,151.88
2022-09-11T07:01:00.722Z,140.63
2022-09-11T07:02:00.814Z,123.75
2022-09-11T07:03:00.716Z,118.13
2022-09-11T07:04:00.733Z,118.13
2022-09-11T07:05:00.754Z,157.50
2022-09-11T07:06:00.773Z,196.88
2022-09-11T07:07:00.794Z,174.38
2022-09-11T07:08:00.813Z,135.00
2022-09-11T07:09:00.930Z,129.38
2022-09-11T07:10:00.854Z,157.50
2022-09-11T07:11:00.874Z,157.50
2022-09-11T07:12:00.891Z,174.38
2022-09-11T07:13:00.917Z,180.00
2022-09-11T07:14:00.935Z,191.25
2022-09-11T07:15:00.949Z,168.75
2022-09-11T07:16:00.970Z,146.25
2022-09-11T07:17:01.005Z,180.00
2022-09-11T07:18:01.007Z,157.50
2022-09-11T07:19:01.028Z,163.13
2022-09-11T07:20:01.051Z,180.00
2022-09-11T07:21:01.065Z,180.00
2022-09-11T07:22:01.084Z,157.50
2022-09-11T07:23:01.104Z,208.13
2022-09-11T07:24:01.124Z,208.13
2022-09-11T07:25:02.819Z,225.00
2022-09-11T07:26:01.165Z,219.38
2022-09-11T07:27:01.184Z,185.63
2022-09-11T07:28:01.202Z,191.25
2022-09-11T07:29:01.218Z,196.88
2022-09-11T07:30:01.240Z,213.75
2022-09-11T07:31:01.289Z,253.13
2022-09-11T07:32:01.278Z,241.88
2022-09-11T07:33:01.298Z,230.63
2022-09-11T07:34:01.318Z,230.63
2022-09-11T07:35:01.338Z,202.50
2022-09-11T07:36:01.362Z,253.13
2022-09-11T07:37:01.379Z,241.88
2022-09-11T07:38:01.397Z,196.88
2022-09-11T07:39:01.421Z,202.50
2022-09-11T07:40:01.523Z,230.63
2022-09-11T07:41:01.455Z,230.63
2022-09-11T07:42:01.477Z,208.13
2022-09-11T07:43:01.494Z,191.25
2022-09-11T07:44:01.515Z,253.13
2022-09-11T07:45:01.536Z,253.13
2022-09-11T07:46:01.604Z,270.00
2022-09-11T07:47:01.573Z,315.00
2022-09-11T07:48:01.594Z,337.50
2022-09-11T07:49:01.614Z,360.00
2022-09-11T07:50:01.632Z,421.88
2022-09-11T07:51:01.654Z,489.38
2022-09-11T07:52:01.674Z,534.38
2022-09-11T07:53:01.692Z,568.13
2022-09-11T07:54:01.713Z,568.13
2022-09-11T07:55:01.733Z,562.50
2022-09-11T07:56:01.752Z,607.50
2022-09-11T07:57:01.771Z,646.88
2022-09-11T07:58:01.793Z,641.25
2022-09-11T07:59:01.817Z,675.00
2022-09-11T08:00:01.835Z,630.00
2022-09-11T08:01:01.875Z,607.50
2022-09-11T08:02:01.930Z,669.38
2022-09-11T08:03:01.896Z,703.13
2022-09-11T08:04:01.915Z,658.13
2022-09-11T08:05:01.936Z,551.25
2022-09-11T08:06:01.956Z,534.38
2022-09-11T08:07:01.979Z,556.88
2022-09-11T08:08:01.997Z,624.38
2022-09-11T08:09:02.019Z,708.75
2022-09-11T08:10:25.717Z,618.75
2022-09-11T08:11:02.062Z,658.13
2022-09-11T08:12:02.087Z,731.25
2022-09-11T08:13:02.106Z,579.38
2022-09-11T08:14:02.127Z,523.13
2022-09-11T08:15:02.148Z,618.75
2022-09-11T08:16:02.170Z,624.38
2022-09-11T08:17:02.191Z,523.13
2022-09-11T08:18:02.214Z,450.00
2022-09-11T08:19:02.234Z,388.13
2022-09-11T08:20:02.260Z,388.13
2022-09-11T08:21:02.278Z,371.25
2022-09-11T08:22:02.302Z,315.00
2022-09-11T08:23:02.324Z,326.25
2022-09-11T08:24:02.344Z,360.00
2022-09-11T08:25:02.363Z,343.13
2022-09-11T08:26:02.395Z,320.63
2022-09-11T08:27:02.409Z,360.00
2022-09-11T08:28:02.430Z,388.13
2022-09-11T08:29:02.453Z,416.25
2022-09-11T08:30:02.485Z,500.63
2022-09-11T08:31:02.561Z,545.63
2022-09-11T08:32:02.617Z,624.38
2022-09-11T08:33:02.539Z,635.63
2022-09-11T08:34:02.560Z,590.63
2022-09-11T08:35:02.582Z,562.50
2022-09-11T08:36:02.605Z,421.88
2022-09-11T08:37:02.626Z,410.63
2022-09-11T08:38:02.649Z,630.00
2022-09-11T08:39:02.669Z,804.38
2022-09-11T08:40:02.725Z,691.88
2022-09-11T08:41:02.712Z,675.00
2022-09-11T08:42:02.734Z,663.75
2022-09-11T08:43:02.757Z,652.50
2022-09-11T08:44:02.779Z,652.50
2022-09-11T08:45:02.798Z,624.38
2022-09-11T08:46:02.868Z,607.50
2022-09-11T08:47:02.846Z,669.38
2022-09-11T08:48:02.870Z,658.13
2022-09-11T08:49:02.889Z,663.75
2022-09-11T08:50:02.915Z,511.88
2022-09-11T08:51:02.943Z,472.50
2022-09-11T08:52:02.955Z,585.00
2022-09-11T08:53:02.978Z,691.88
2022-09-11T08:54:03.004Z,646.88
2022-09-11T08:55:03.023Z,630.00
2022-09-11T08:56:03.046Z,590.63
2022-09-11T08:57:03.067Z,562.50
2022-09-11T08:58:03.088Z,534.38
2022-09-11T08:59:03.113Z,540.00
2022-09-11T09:00:03.133Z,545.63
2022-09-11T09:01:03.183Z,388.13
2022-09-11T09:02:03.207Z,393.75
2022-09-11T09:03:03.202Z,455.63
2022-09-11T09:04:03.225Z,466.88
2022-09-11T09:05:03.248Z,399.38
2022-09-11T09:06:03.277Z,376.88
2022-09-11T09:07:03.292Z,348.75
2022-09-11T09:08:03.316Z,303.75
2022-09-11T09:09:03.340Z,320.63
2022-09-11T09:10:03.366Z,303.75
2022-09-11T09:11:03.382Z,343.13
2022-09-11T09:12:03.404Z,433.13
2022-09-11T09:13:03.430Z,534.38
2022-09-11T09:14:03.450Z,556.88
2022-09-11T09:15:03.474Z,455.63
2022-09-11T09:16:03.624Z,365.63
2022-09-11T09:17:03.516Z,292.50
2022-09-11T09:18:03.537Z,264.38
2022-09-11T09:19:03.561Z,286.88
2022-09-11T09:20:03.583Z,348.75
2022-09-11T09:21:03.605Z,399.38
2022-09-11T09:22:03.628Z,438.75
2022-09-11T09:23:03.650Z,511.88
2022-09-11T09:24:03.672Z,601.88
2022-09-11T09:25:03.695Z,652.50
2022-09-11T09:26:03.719Z,669.38
2022-09-11T09:27:03.739Z,641.25
2022-09-11T09:28:03.767Z,585.00
2022-09-11T09:29:03.784Z,534.38
2022-09-11T09:30:03.808Z,646.88
2022-09-11T09:31:03.891Z,714.38
2022-09-11T09:32:03.852Z,742.50
2022-09-11T09:33:03.872Z,748.13
2022-09-11T09:34:03.897Z,770.63
2022-09-11T09:35:03.919Z,804.38
2022-09-11T09:36:03.939Z,793.13
2022-09-11T09:37:03.964Z,652.50
2022-09-11T09:38:03.988Z,523.13
2022-09-11T09:39:04.009Z,517.50
2022-09-11T09:40:04.144Z,556.88
2022-09-11T09:41:04.054Z,528.75
2022-09-11T09:42:04.078Z,416.25
2022-09-11T09:43:04.099Z,360.00
2022-09-11T09:44:04.122Z,405.00
2022-09-11T09:45:04.145Z,450.00
2022-09-11T09:46:04.221Z,506.25
2022-09-11T09:47:04.193Z,579.38
2022-09-11T09:48:04.216Z,540.00
2022-09-11T09:49:04.236Z,540.00
2022-09-11T09:50:04.260Z,562.50
2022-09-11T09:51:04.286Z,568.13
2022-09-11T09:52:04.684Z,590.63
2022-09-11T09:53:04.330Z,663.75
2022-09-11T09:54:04.361Z,708.75
2022-09-11T09:55:04.375Z,765.00
2022-09-11T09:56:04.397Z,855.00
2022-09-11T09:57:04.426Z,826.88
2022-09-11T09:58:04.444Z,776.25
2022-09-11T09:59:04.469Z,697.50
2022-09-11T10:00:04.489Z,675.00
2022-09-11T10:01:04.556Z,545.63
2022-09-11T10:02:04.599Z,438.75
2022-09-11T10:03:04.559Z,388.13
2022-09-11T10:04:04.593Z,365.63
2022-09-11T10:05:04.605Z,388.13
2022-09-11T10:06:04.629Z,360.00
2022-09-11T10:07:04.651Z,298.13
2022-09-11T10:08:04.676Z,247.50
2022-09-11T10:09:04.698Z,236.25
2022-09-11T10:10:04.724Z,236.25
2022-09-11T10:11:04.746Z,230.63
2022-09-11T10:12:04.767Z,247.50
2022-09-11T10:13:18.621Z,354.38
2022-09-11T10:14:06.971Z,433.13
2022-09-11T10:15:04.849Z,495.00
2022-09-11T10:16:04.956Z,545.63
2022-09-11T10:17:04.887Z,585.00
2022-09-11T10:18:04.906Z,585.00
2022-09-11T10:19:04.932Z,607.50
2022-09-11T10:20:04.953Z,624.38
2022-09-11T10:21:08.083Z,652.50
2022-09-11T10:22:04.999Z,725.63
2022-09-11T10:23:05.022Z,776.25
2022-09-11T10:24:05.044Z,748.13
2022-09-11T10:25:05.067Z,669.38
2022-09-11T10:26:05.096Z,579.38
2022-09-11T10:27:05.117Z,517.50
2022-09-11T10:28:05.139Z,495.00
2022-09-11T10:29:05.164Z,517.50
2022-09-11T10:30:05.191Z,551.25
2022-09-11T10:31:05.297Z,590.63
2022-09-11T10:32:05.232Z,646.88
2022-09-11T10:33:05.262Z,708.75
2022-09-11T10:34:05.282Z,725.63
2022-09-11T10:35:05.305Z,697.50
2022-09-11T10:36:05.324Z,641.25
2022-09-11T10:37:05.351Z,601.88
2022-09-11T10:38:05.372Z,601.88
2022-09-11T10:39:05.408Z,641.25
2022-09-11T10:40:05.507Z,663.75
2022-09-11T10:41:05.445Z,669.38
2022-09-11T10:42:05.484Z,663.75
2022-09-11T10:43:05.493Z,675.00
2022-09-11T10:44:05.517Z,714.38
2022-09-11T10:45:05.535Z,776.25
2022-09-11T10:46:05.594Z,821.25
2022-09-11T10:47:05.582Z,720.00
2022-09-11T10:48:05.604Z,635.63
2022-09-11T10:49:05.629Z,630.00
2022-09-11T10:50:05.655Z,1378.13
2022-09-11T10:51:05.675Z,900.00
2022-09-11T10:52:05.704Z,1063.13
2022-09-11T10:53:05.721Z,1012.50
2022-09-11T10:54:05.748Z,675.00
2022-09-11T10:55:05.771Z,624.38
2022-09-11T10:56:05.792Z,590.63
2022-09-11T10:57:05.837Z,573.75
2022-09-11T10:58:05.843Z,562.50
2022-09-11T10:59:05.866Z,528.75
2022-09-11T11:00:05.888Z,495.00
2022-09-11T11:01:05.956Z,478.13
2022-09-11T11:02:05.957Z,450.00
2022-09-11T11:03:05.960Z,410.63
2022-09-11T11:04:09.206Z,354.38
2022-09-11T11:05:06.010Z,292.50
2022-09-11T11:06:06.033Z,225.00
2022-09-11T11:07:06.112Z,174.38
2022-09-11T11:08:06.080Z,163.13
2022-09-11T11:09:06.114Z,196.88
2022-09-11T11:10:06.130Z,253.13
2022-09-11T11:11:06.156Z,309.38
2022-09-11T11:12:06.177Z,371.25
2022-09-11T11:13:06.199Z,450.00
2022-09-11T11:14:06.223Z,495.00
2022-09-11T11:15:06.246Z,534.38
2022-09-11T11:16:06.290Z,545.63
2022-09-11T11:17:06.295Z,517.50
2022-09-11T11:18:06.317Z,500.63
2022-09-11T11:19:06.339Z,495.00
2022-09-11T11:20:06.364Z,495.00
2022-09-11T11:21:06.386Z,461.25
2022-09-11T11:22:06.410Z,433.13
2022-09-11T11:23:06.433Z,438.75
2022-09-11T11:24:06.454Z,483.75
2022-09-11T11:25:06.476Z,495.00
2022-09-11T11:26:06.500Z,472.50
2022-09-11T11:27:06.524Z,393.75
2022-09-11T11:28:06.552Z,343.13
2022-09-11T11:29:06.568Z,371.25
2022-09-11T11:30:06.592Z,433.13
2022-09-11T11:31:06.687Z,483.75
2022-09-11T11:32:06.639Z,495.00
2022-09-11T11:33:06.661Z,495.00
2022-09-11T11:34:06.685Z,472.50
2022-09-11T11:35:06.707Z,466.88
2022-09-11T11:36:06.729Z,461.25
2022-09-11T11:37:06.778Z,450.00
2022-09-11T11:38:06.773Z,433.13
2022-09-11T11:39:06.803Z,421.88
2022-09-11T11:40:06.904Z,410.63
2022-09-11T11:41:06.844Z,388.13
2022-09-11T11:42:06.864Z,371.25
2022-09-11T11:43:06.889Z,354.38
2022-09-11T11:44:06.910Z,348.75
2022-09-11T11:45:06.933Z,360.00
2022-09-11T11:46:06.978Z,365.63
2022-09-11T11:47:06.979Z,388.13
2022-09-11T11:48:07.001Z,399.38
2022-09-11T11:49:07.022Z,405.00
2022-09-11T11:50:07.048Z,416.25
2022-09-11T11:51:07.069Z,416.25
2022-09-11T11:52:07.092Z,421.88
2022-09-11T11:53:07.116Z,438.75
2022-09-11T11:54:07.137Z,483.75
2022-09-11T11:55:07.163Z,540.00
2022-09-11T11:56:07.183Z,601.88
2022-09-11T11:57:07.207Z,658.13
2022-09-11T11:58:07.231Z,703.13
2022-09-11T11:59:07.254Z,697.50
2022-09-11T12:00:07.274Z,658.13
2022-09-11T12:01:07.297Z,613.13
2022-09-11T12:02:07.353Z,568.13
2022-09-11T12:03:07.342Z,540.00
2022-09-11T12:04:07.363Z,450.00
2022-09-11T12:05:07.388Z,433.13
2022-09-11T12:06:07.410Z,450.00
2022-09-11T12:07:07.434Z,478.13
2022-09-11T12:08:07.458Z,528.75
2022-09-11T12:09:07.478Z,590.63
2022-09-11T12:10:07.501Z,675.00
2022-09-11T12:11:07.531Z,770.63
2022-09-11T12:12:07.555Z,860.63
2022-09-11T12:13:07.571Z,928.13
2022-09-11T12:14:07.595Z,928.13
2022-09-11T12:15:07.617Z,866.25
2022-09-11T12:16:11.168Z,855.00
2022-09-11T12:17:07.666Z,871.88
2022-09-11T12:18:07.688Z,866.25
2022-09-11T12:19:07.786Z,866.25
2022-09-11T12:20:07.738Z,815.63
2022-09-11T12:21:07.759Z,748.13
2022-09-11T12:22:07.780Z,686.25
2022-09-11T12:23:07.806Z,630.00
2022-09-11T12:24:07.833Z,607.50
2022-09-11T12:25:07.852Z,573.75
2022-09-11T12:26:07.877Z,556.88
2022-09-11T12:27:11.573Z,540.00
2022-09-11T12:28:07.925Z,523.13
2022-09-11T12:29:07.951Z,511.88
2022-09-11T12:30:07.973Z,517.50
2022-09-11T12:31:08.024Z,517.50
2022-09-11T12:32:08.027Z,517.50
2022-09-11T12:33:08.044Z,511.88
2022-09-11T12:34:08.069Z,523.13
2022-09-11T12:35:08.095Z,551.25
2022-09-11T12:36:08.117Z,573.75
2022-09-11T12:37:08.151Z,562.50
2022-09-11T12:38:08.164Z,534.38
2022-09-11T12:39:08.188Z,489.38
2022-09-11T12:40:08.243Z,466.88
2022-09-11T12:41:08.237Z,461.25
2022-09-11T12:42:08.261Z,450.00
2022-09-11T12:43:09.188Z,455.63
2022-09-11T12:44:08.308Z,466.88
2022-09-11T12:45:08.333Z,483.75
2022-09-11T12:46:08.398Z,511.88
2022-09-11T12:47:08.380Z,517.50
2022-09-11T12:48:08.403Z,517.50
2022-09-11T12:49:23.631Z,528.75